Terminal Aerodrome Forecast
Issued by NWS

Home | Current Version | Previous Version | Text Only | Print | Product List | Glossary On
Versions: 1 2 3 4 5 6 7 8 9 10 11 12 13
568
FTPA31 PHFO 301857 AAA
TAFHJR
TAF AMD
PHJR 301857Z 3019/0118 07012G19KT P6SM FEW025 SCT045
     FM010500 04005KT P6SM SCT030=

USA.gov is the U.S. government's official web portal to all federal, state and local government web resources and services.